Time;durP1;ratioP1;P1;durP2;ratioP2;P2;SDS_P1;SDS_P2;PMS_P1;PMS_P2;Temp;Humidity;BMP_temperature;BMP_pressure;BME280_temperature;BME280_humidity;BME280_pressure;Samples;Min_cycle;Max_cycle;Signal;HPM_P1;HPM_P2
2022/01/28 00:01:46;;;;;;;;;;;;;;;2.42;100.00;97842.19;5056190;28;19924;-63
2022/01/28 00:04:13;;;;;;;;;;;;;;;2.42;100.00;97843.00;5056083;28;19917;-62
2022/01/28 00:06:39;;;;;;;;;;;;;;;2.30;100.00;97853.72;5067980;28;20361;-63
2022/01/28 00:09:04;;;;;;;;;;;;;;;2.36;100.00;97863.47;5075265;28;19916;-64
2022/01/28 00:11:30;;;;;;;;;;;;;;;2.52;100.00;97855.84;5075259;28;19920;-63
2022/01/28 00:14:06;;;;;;;;;;;;;;;2.50;100.00;97866.38;5075530;28;19916;-63
2022/01/28 00:38:32;;;;;;;;;;;;;;;2.88;100.00;97880.72;5055909;28;19974;-63
2022/01/28 00:40:57;;;;;;;;;;;;;;;2.83;100.00;97882.94;5054899;28;19974;-63
2022/01/28 00:43:22;;;;;;;;;;;;;;;2.90;100.00;97878.78;5073518;28;19925;-63
2022/01/28 00:45:47;;;;;;;;;;;;;;;2.85;100.00;97875.81;5073421;28;20015;-63
2022/01/28 00:48:13;;;;;;;;;;;;;;;2.85;100.00;97864.66;5065897;28;19962;-62
2022/01/28 00:50:41;;;;;;;;;;;;;;;2.82;100.00;97881.31;5055229;28;19923;-62
2022/01/28 00:53:06;;;;;;;;;;;;;;;2.84;100.00;97870.81;5055208;28;20285;-63
2022/01/28 00:55:32;;;;;;;;;;;;;;;2.77;100.00;97862.84;5055978;28;19920;-62
2022/01/28 00:57:57;;;;;;;;;;;;;;;2.81;100.00;97868.53;5054980;28;19916;-63
2022/01/28 01:00:22;;;;;;;;;;;;;;;2.81;100.00;97871.94;5055211;28;20075;-63
2022/01/28 01:02:47;;;;;;;;;;;;;;;2.75;100.00;97867.34;5070546;28;19916;-63
2022/01/28 01:05:13;;;;;;;;;;;;;;;2.72;100.00;97879.78;5071966;28;19925;-63
2022/01/28 01:07:38;;;;;;;;;;;;;;;2.74;100.00;97876.06;5060607;28;19924;-62
2022/01/28 01:10:04;;;;;;;;;;;;;;;2.76;100.00;97873.34;5073922;28;20361;-64
2022/01/28 01:12:32;;;;;;;;;;;;;;;2.78;100.00;97868.84;5061397;28;19917;-64
2022/01/28 01:14:58;;;;;;;;;;;;;;;2.74;100.00;97875.25;5054550;28;19917;-63
2022/01/28 01:17:35;;;;;;;;;;;;;;;2.66;100.00;97888.97;5073335;28;20295;-63
2022/01/28 01:20:17;;;;;;;;;;;;;;;2.58;100.00;97896.66;5074364;28;19916;-63
2022/01/28 01:22:50;;;;;;;;;;;;;;;2.53;100.00;97891.09;5055925;28;19920;-63
2022/01/28 01:25:23;;;;;;;;;;;;;;;2.54;100.00;97895.31;5071558;28;19924;-63
2022/01/28 01:27:53;;;;;;;;;;;;;;;2.44;100.00;97887.66;5068339;28;20030;-63
2022/01/28 01:30:18;;;;;;;;;;;;;;;2.44;100.00;97900.59;5073723;28;20336;-63
2022/01/28 01:32:44;;;;;;;;;;;;;;;2.46;100.00;97914.16;5073865;28;19917;-63
2022/01/28 01:35:09;;;;;;;;;;;;;;;2.32;100.00;97903.53;5057549;28;19970;-63
2022/01/28 01:37:34;;;;;;;;;;;;;;;2.33;100.00;97894.81;5043169;28;20406;-63
2022/01/28 01:39:59;;;;;;;;;;;;;;;2.36;100.00;97897.09;5053754;28;19920;-63
2022/01/28 01:45:47;;;;;;;;;;;;;;;2.18;100.00;97906.59;5030126;28;19920;-63
2022/01/28 01:53:40;;;;;;;;;;;;;;;2.21;100.00;97907.16;5072939;28;19923;-63
2022/01/28 01:56:05;;;;;;;;;;;;;;;2.15;100.00;97907.72;5060722;28;19916;-63
2022/01/28 01:58:32;;;;;;;;;;;;;;;2.16;100.00;97922.28;5057433;28;20438;-63
2022/01/28 02:00:58;;;;;;;;;;;;;;;2.14;100.00;97923.38;5073155;28;19924;-63
2022/01/28 02:03:23;;;;;;;;;;;;;;;2.06;100.00;97937.06;5054430;28;20011;-63
2022/01/28 02:05:49;;;;;;;;;;;;;;;2.14;100.00;97951.81;5035826;28;20070;-63
2022/01/28 02:08:14;;;;;;;;;;;;;;;2.15;100.00;97961.22;5053465;28;19917;-63
2022/01/28 02:10:39;;;;;;;;;;;;;;;2.14;100.00;97969.94;5058469;28;20337;-63
2022/01/28 02:13:04;;;;;;;;;;;;;;;2.11;100.00;97967.66;5072867;28;19912;-63
2022/01/28 02:15:30;;;;;;;;;;;;;;;2.16;100.00;97971.44;5073091;28;19916;-63
2022/01/28 02:17:57;;;;;;;;;;;;;;;2.12;100.00;97971.88;5058380;28;19920;-65
2022/01/28 02:20:35;;;;;;;;;;;;;;;2.22;100.00;97975.19;5054527;28;19925;-63
2022/01/28 02:23:01;;;;;;;;;;;;;;;2.26;100.00;97981.72;5054835;28;19913;-63
2022/01/28 02:25:27;;;;;;;;;;;;;;;2.34;100.00;97979.22;5053744;28;19917;-63
2022/01/28 02:27:54;;;;;;;;;;;;;;;2.27;100.00;97978.16;5035755;28;19995;-63
2022/01/28 02:30:19;;;;;;;;;;;;;;;2.25;100.00;97982.66;5054732;28;19923;-63
2022/01/28 02:32:47;;;;;;;;;;;;;;;2.31;100.00;97977.72;5072868;28;19917;-63
2022/01/28 02:35:12;;;;;;;;;;;;;;;2.22;100.00;97978.59;5073159;28;19917;-63
2022/01/28 02:37:37;;;;;;;;;;;;;;;2.23;100.00;97974.25;5073226;28;19970;-63
2022/01/28 02:40:04;;;;;;;;;;;;;;;2.21;100.00;97973.56;5073161;28;19920;-63
2022/01/28 02:42:45;;;;;;;;;;;;;;;2.18;100.00;97976.44;5038956;28;19920;-63
2022/01/28 02:45:13;;;;;;;;;;;;;;;2.21;100.00;97971.81;5055120;28;19955;-65
2022/01/28 02:47:38;;;;;;;;;;;;;;;2.14;100.00;97973.31;5072791;28;19969;-63
2022/01/28 02:50:07;;;;;;;;;;;;;;;2.08;100.00;97979.06;5058410;28;19920;-64
2022/01/28 02:52:38;;;;;;;;;;;;;;;2.02;100.00;97975.28;5069769;28;19923;-62
2022/01/28 02:55:09;;;;;;;;;;;;;;;2.06;100.00;97975.84;5076520;28;19928;-63
2022/01/28 02:57:37;;;;;;;;;;;;;;;2.08;100.00;97984.25;5069476;28;19917;-63
2022/01/28 03:00:03;;;;;;;;;;;;;;;1.95;100.00;97981.97;5060032;28;19920;-63
2022/01/28 03:02:29;;;;;;;;;;;;;;;1.85;100.00;97988.97;5062421;28;19917;-63
2022/01/28 03:07:38;;;;;;;;;;;;;;;1.99;100.00;97993.69;5073165;28;19924;-63
2022/01/28 03:12:48;;;;;;;;;;;;;;;2.12;100.00;97989.97;5057062;28;20374;-63
2022/01/28 03:15:19;;;;;;;;;;;;;;;2.19;100.00;97991.00;5056985;28;20022;-63
2022/01/28 03:18:07;;;;;;;;;;;;;;;2.18;100.00;98008.28;5056466;28;19928;-63
2022/01/28 03:20:55;;;;;;;;;;;;;;;2.24;100.00;98004.31;5068283;28;19913;-63
2022/01/28 03:23:20;;;;;;;;;;;;;;;2.20;100.00;98000.38;5076439;28;20030;-63
2022/01/28 03:25:47;;;;;;;;;;;;;;;2.13;100.00;98009.66;5076257;28;19950;-63
2022/01/28 03:28:13;;;;;;;;;;;;;;;2.30;100.00;98003.72;5076614;28;19912;-63
2022/01/28 03:30:39;;;;;;;;;;;;;;;2.27;100.00;98009.22;5066714;28;19924;-65
2022/01/28 03:33:04;;;;;;;;;;;;;;;2.32;100.00;98012.16;5076439;28;19916;-63
2022/01/28 03:35:30;;;;;;;;;;;;;;;2.26;100.00;98015.34;5072794;28;20446;-63
2022/01/28 03:38:00;;;;;;;;;;;;;;;2.23;100.00;98007.88;5056634;28;20003;-63
2022/01/28 03:40:25;;;;;;;;;;;;;;;2.30;99.27;98009.72;5056501;28;20007;-63
2022/01/28 03:42:51;;;;;;;;;;;;;;;2.32;98.67;98013.00;5074623;28;20000;-63
2022/01/28 03:45:16;;;;;;;;;;;;;;;2.33;99.09;98016.38;5075945;28;19959;-63
2022/01/28 03:47:41;;;;;;;;;;;;;;;2.42;99.02;98023.28;5076167;28;19916;-63
2022/01/28 03:50:07;;;;;;;;;;;;;;;2.34;98.35;98029.16;5057826;28;19946;-63
2022/01/28 03:52:32;;;;;;;;;;;;;;;2.36;99.31;98029.03;5060656;28;20289;-63
2022/01/28 03:54:57;;;;;;;;;;;;;;;2.38;98.60;98022.75;5055896;28;19921;-63
2022/01/28 03:57:22;;;;;;;;;;;;;;;2.54;98.00;98026.47;5056050;28;19924;-63
2022/01/28 03:59:48;;;;;;;;;;;;;;;2.56;97.63;98038.31;5055371;28;19923;-63
2022/01/28 04:02:13;;;;;;;;;;;;;;;2.53;97.56;98030.03;5056501;28;19920;-63
2022/01/28 04:12:40;;;;;;;;;;;;;;;2.50;97.44;98038.91;5072502;28;20031;-64
2022/01/28 04:15:23;;;;;;;;;;;;;;;2.51;97.38;98033.56;5075044;28;19942;-63
2022/01/28 04:17:49;;;;;;;;;;;;;;;2.54;97.38;98040.22;5075237;28;19965;-63
2022/01/28 04:20:15;;;;;;;;;;;;;;;2.59;96.82;98035.44;5073828;28;19970;-63
2022/01/28 04:22:40;;;;;;;;;;;;;;;2.48;96.59;98043.41;5056208;28;19920;-63
2022/01/28 04:25:06;;;;;;;;;;;;;;;2.45;97.37;98036.72;5055565;28;19916;-63
2022/01/28 04:27:31;;;;;;;;;;;;;;;2.51;96.87;98027.56;5055861;28;19977;-63
2022/01/28 04:29:56;;;;;;;;;;;;;;;2.36;96.99;98039.38;5035917;28;20478;-63
2022/01/28 04:32:23;;;;;;;;;;;;;;;2.25;97.46;98042.16;5038730;28;19925;-63
2022/01/28 04:34:49;;;;;;;;;;;;;;;2.19;98.08;98028.00;5055671;28;19917;-63
2022/01/28 04:50:16;;;;;;;;;;;;;;;1.93;99.38;98076.97;5074899;28;19971;-63
2022/01/28 04:55:41;;;;;;;;;;;;;;;2.00;99.42;98078.06;5066587;28;19969;-63
2022/01/28 05:03:34;;;;;;;;;;;;;;;2.15;98.05;98088.75;5074491;28;20258;-62
2022/01/28 05:06:35;;;;;;;;;;;;;;;2.08;97.74;98082.50;5073220;28;19917;-62
2022/01/28 05:27:21;;;;;;;;;;;;;;;1.85;99.03;98088.97;5054328;28;19917;-63
2022/01/28 05:29:46;;;;;;;;;;;;;;;1.80;98.72;98089.38;5059246;28;19923;-63
2022/01/28 05:32:11;;;;;;;;;;;;;;;1.88;98.36;98091.28;5074228;28;19923;-63
2022/01/28 05:34:37;;;;;;;;;;;;;;;1.73;98.92;98083.13;5073983;28;19964;-63
2022/01/28 05:37:02;;;;;;;;;;;;;;;1.69;99.74;98102.47;5073430;28;19924;-63
2022/01/28 05:39:28;;;;;;;;;;;;;;;1.67;100.00;98110.34;5070475;28;20409;-63
2022/01/28 05:41:53;;;;;;;;;;;;;;;1.66;100.00;98107.91;5054066;28;19939;-63
2022/01/28 05:44:18;;;;;;;;;;;;;;;1.64;100.00;98102.88;5053952;28;19971;-63
2022/01/28 05:46:45;;;;;;;;;;;;;;;1.63;100.00;98106.41;5054133;28;20362;-63
2022/01/28 05:49:10;;;;;;;;;;;;;;;1.61;100.00;98104.94;5069993;28;19923;-63
2022/01/28 05:51:35;;;;;;;;;;;;;;;1.59;100.00;98117.97;5053740;28;19917;-63
2022/01/28 05:54:01;;;;;;;;;;;;;;;1.60;99.04;98117.03;5054048;28;19917;-63
2022/01/28 05:56:26;;;;;;;;;;;;;;;1.64;99.85;98120.97;5053962;28;19916;-63
2022/01/28 05:58:52;;;;;;;;;;;;;;;1.64;100.00;98123.53;5054002;28;20043;-63
2022/01/28 06:01:17;;;;;;;;;;;;;;;1.62;99.50;98130.59;5070665;28;19966;-63
2022/01/28 06:03:44;;;;;;;;;;;;;;;1.66;99.60;98126.00;5053526;28;19917;-63
2022/01/28 06:06:13;;;;;;;;;;;;;;;1.63;100.00;98129.66;5053672;28;19924;-63
2022/01/28 06:08:38;;;;;;;;;;;;;;;1.56;100.00;98136.31;5053931;28;19916;-63
2022/01/28 06:11:03;;;;;;;;;;;;;;;1.57;100.00;98143.13;5068759;28;19943;-63
2022/01/28 06:13:29;;;;;;;;;;;;;;;1.64;99.81;98145.97;5069360;28;19924;-63
2022/01/28 06:15:56;;;;;;;;;;;;;;;1.68;99.10;98152.50;5053045;28;19916;-63
2022/01/28 06:18:21;;;;;;;;;;;;;;;1.63;99.53;98158.09;5053463;28;19925;-63
2022/01/28 06:20:46;;;;;;;;;;;;;;;1.64;99.93;98161.47;5064398;28;20011;-63
2022/01/28 06:23:12;;;;;;;;;;;;;;;1.61;100.00;98166.94;5053099;28;20007;-63
2022/01/28 06:25:39;;;;;;;;;;;;;;;1.60;99.07;98165.31;5053496;28;19917;-63
2022/01/28 06:28:04;;;;;;;;;;;;;;;1.53;99.79;98172.78;5053384;28;20416;-63
2022/01/28 06:30:29;;;;;;;;;;;;;;;1.58;98.57;98183.53;5068611;28;19999;-63
2022/01/28 06:32:55;;;;;;;;;;;;;;;1.63;98.18;98189.09;5073156;28;19995;-63
2022/01/28 06:35:20;;;;;;;;;;;;;;;1.63;97.60;98190.84;5072938;28;19916;-63
2022/01/28 06:37:45;;;;;;;;;;;;;;;1.64;98.41;98201.06;5073248;28;19916;-63
2022/01/28 06:40:12;;;;;;;;;;;;;;;1.78;99.03;98215.38;5056293;28;19921;-63
2022/01/28 06:42:37;;;;;;;;;;;;;;;1.64;99.32;98224.31;5071442;28;19939;-63
2022/01/28 06:45:06;;;;;;;;;;;;;;;1.71;99.04;98228.94;5071267;28;20365;-63
2022/01/28 06:47:32;;;;;;;;;;;;;;;1.71;98.54;98224.59;5071008;28;19916;-63
2022/01/28 06:49:57;;;;;;;;;;;;;;;1.63;98.45;98219.28;5059571;28;20007;-63
2022/01/28 06:52:22;;;;;;;;;;;;;;;1.55;99.21;98226.91;5059013;28;19981;-63
2022/01/28 06:54:48;;;;;;;;;;;;;;;1.58;98.50;98224.84;5072556;28;20368;-63
2022/01/28 06:57:13;;;;;;;;;;;;;;;1.57;98.96;98223.22;5071364;28;19916;-63
2022/01/28 06:59:39;;;;;;;;;;;;;;;1.64;98.27;98215.75;5069638;28;20278;-63
2022/01/28 07:02:05;;;;;;;;;;;;;;;1.53;97.76;98226.22;5063050;28;19913;-63
2022/01/28 07:04:30;;;;;;;;;;;;;;;1.60;98.54;98225.53;5044392;28;19917;-63
2022/01/28 07:06:55;;;;;;;;;;;;;;;1.55;98.73;98232.06;5064690;28;19912;-63
2022/01/28 07:09:20;;;;;;;;;;;;;;;1.58;98.63;98227.44;5063710;28;19924;-63
2022/01/28 07:11:46;;;;;;;;;;;;;;;1.47;99.27;98221.56;5058565;28;19928;-63
2022/01/28 07:14:11;;;;;;;;;;;;;;;1.44;100.00;98232.19;5071960;28;19916;-63
2022/01/28 07:16:36;;;;;;;;;;;;;;;1.44;100.00;98221.84;5071982;28;19923;-63
2022/01/28 07:19:03;;;;;;;;;;;;;;;1.43;100.00;98222.81;5055051;28;20290;-64
2022/01/28 07:21:28;;;;;;;;;;;;;;;1.38;100.00;98228.38;5052668;28;19924;-63
2022/01/28 07:23:54;;;;;;;;;;;;;;;1.47;100.00;98244.81;5052709;28;20385;-65
2022/01/28 07:26:19;;;;;;;;;;;;;;;1.54;99.72;98243.34;5058789;28;20393;-64
2022/01/28 07:28:45;;;;;;;;;;;;;;;1.67;99.43;98256.84;5057768;28;20313;-64
2022/01/28 07:31:14;;;;;;;;;;;;;;;1.84;100.00;98250.97;5052722;28;19916;-66
2022/01/28 07:33:39;;;;;;;;;;;;;;;1.90;99.57;98260.78;5056383;28;19917;-66
2022/01/28 07:36:05;;;;;;;;;;;;;;;1.89;97.94;98266.09;5070830;28;19942;-65
2022/01/28 07:38:30;;;;;;;;;;;;;;;1.83;98.06;98257.13;5064451;28;20374;-66
2022/01/28 07:40:57;;;;;;;;;;;;;;;1.85;98.73;98272.47;5069770;28;19953;-65
2022/01/28 07:43:22;;;;;;;;;;;;;;;1.91;99.02;98277.94;5056567;28;19920;-65
2022/01/28 07:45:48;;;;;;;;;;;;;;;1.97;97.96;98276.56;5057009;28;19917;-64
2022/01/28 07:48:13;;;;;;;;;;;;;;;2.06;97.93;98281.72;5056225;28;20011;-65
2022/01/28 07:50:38;;;;;;;;;;;;;;;2.17;97.68;98272.22;5038422;28;20015;-65
2022/01/28 07:53:05;;;;;;;;;;;;;;;2.20;96.96;98267.59;5072918;28;19916;-66
2022/01/28 07:55:30;;;;;;;;;;;;;;;2.22;97.39;98270.03;5060968;28;19916;-65
2022/01/28 07:57:55;;;;;;;;;;;;;;;2.34;95.39;98268.94;5075429;28;19938;-65
2022/01/28 08:00:26;;;;;;;;;;;;;;;2.24;95.49;98273.28;5074335;28;20066;-65
2022/01/28 08:02:51;;;;;;;;;;;;;;;2.28;96.41;98270.31;5075166;28;20041;-65
2022/01/28 08:05:16;;;;;;;;;;;;;;;2.33;94.72;98273.31;5075535;28;20019;-70
2022/01/28 08:07:43;;;;;;;;;;;;;;;2.46;95.48;98286.75;5062718;28;19920;-65
2022/01/28 08:10:08;;;;;;;;;;;;;;;2.57;95.66;98284.94;5069954;28;19924;-66
2022/01/28 08:12:42;;;;;;;;;;;;;;;2.63;93.97;98286.97;5055707;28;19916;-65
2022/01/28 08:15:08;;;;;;;;;;;;;;;2.75;93.56;98285.88;5055597;28;19917;-65
2022/01/28 08:17:33;;;;;;;;;;;;;;;2.64;93.67;98280.84;5058923;28;19939;-64
2022/01/28 08:19:58;;;;;;;;;;;;;;;2.62;93.59;98286.16;5057935;28;19931;-68
2022/01/28 08:22:23;;;;;;;;;;;;;;;2.62;93.19;98303.50;5073574;28;19920;-66
2022/01/28 08:24:49;;;;;;;;;;;;;;;2.71;93.25;98308.66;5074749;28;20404;-64
2022/01/28 08:27:14;;;;;;;;;;;;;;;2.79;93.18;98315.69;5066485;28;20026;-64
2022/01/28 08:29:39;;;;;;;;;;;;;;;2.73;92.49;98309.31;5056657;28;19973;-65
2022/01/28 08:32:04;;;;;;;;;;;;;;;2.77;92.77;98300.31;5068496;28;20007;-67
2022/01/28 08:34:31;;;;;;;;;;;;;;;2.80;92.06;98312.97;5071509;28;19917;-65
2022/01/28 08:36:56;;;;;;;;;;;;;;;2.78;92.08;98314.91;5063529;28;19953;-65
2022/01/28 08:39:22;;;;;;;;;;;;;;;2.90;91.59;98323.28;5056606;28;19917;-65
2022/01/28 08:41:48;;;;;;;;;;;;;;;3.04;90.37;98322.88;5074444;28;19920;-65
2022/01/28 08:44:13;;;;;;;;;;;;;;;3.16;90.29;98323.50;5065689;28;20258;-65
2022/01/28 08:46:38;;;;;;;;;;;;;;;3.18;89.68;98327.56;5062961;28;19916;-64
2022/01/28 08:49:04;;;;;;;;;;;;;;;3.37;89.24;98339.66;5074744;28;20361;-66
2022/01/28 08:51:29;;;;;;;;;;;;;;;3.33;88.57;98331.34;5056426;28;19916;-66
2022/01/28 08:53:54;;;;;;;;;;;;;;;3.31;88.40;98340.22;5056952;28;19919;-65
2022/01/28 08:56:20;;;;;;;;;;;;;;;3.31;87.50;98332.44;5041984;28;20319;-66
2022/01/28 08:58:45;;;;;;;;;;;;;;;3.24;87.63;98342.53;5074607;28;19913;-65
2022/01/28 09:01:11;;;;;;;;;;;;;;;3.34;87.28;98340.72;5058061;28;19923;-66
2022/01/28 09:03:36;;;;;;;;;;;;;;;3.21;86.54;98339.44;5063185;28;19995;-65
2022/01/28 09:06:02;;;;;;;;;;;;;;;3.30;87.03;98338.56;5064101;28;20425;-65
2022/01/28 09:08:27;;;;;;;;;;;;;;;3.27;86.11;98344.88;5036836;28;20285;-65
2022/01/28 09:13:53;;;;;;;;;;;;;;;3.54;85.52;98344.06;4992194;28;19921;-65
2022/01/28 09:16:20;;;;;;;;;;;;;;;3.57;85.55;98338.59;5054304;28;19916;-67
2022/01/28 09:18:46;;;;;;;;;;;;;;;3.53;85.22;98350.22;5055634;28;19916;-65
2022/01/28 09:21:11;;;;;;;;;;;;;;;3.66;84.72;98347.28;5054599;28;20374;-65
2022/01/28 09:23:36;;;;;;;;;;;;;;;3.77;85.02;98344.50;5062584;28;19917;-65
2022/01/28 09:26:02;;;;;;;;;;;;;;;3.95;84.50;98345.34;5062160;28;19917;-65
2022/01/28 09:28:27;;;;;;;;;;;;;;;4.11;83.83;98349.88;5068078;28;19916;-65
2022/01/28 09:30:52;;;;;;;;;;;;;;;4.31;82.13;98353.16;5063376;28;19931;-65
2022/01/28 09:33:18;;;;;;;;;;;;;;;4.24;82.61;98354.69;5061035;28;20313;-65
2022/01/28 09:35:43;;;;;;;;;;;;;;;4.24;81.99;98358.09;5066728;28;19916;-65
2022/01/28 09:38:09;;;;;;;;;;;;;;;4.32;81.52;98362.56;5068746;28;19917;-65
2022/01/28 09:40:34;;;;;;;;;;;;;;;4.35;81.31;98364.84;5064892;28;19927;-66
2022/01/28 09:43:02;;;;;;;;;;;;;;;4.37;80.89;98368.94;5063887;28;20284;-65
2022/01/28 09:45:28;;;;;;;;;;;;;;;4.31;79.63;98369.53;5064393;28;20039;-66
2022/01/28 09:47:56;;;;;;;;;;;;;;;4.67;77.74;98364.34;5066148;28;20061;-66
2022/01/28 09:50:22;;;;;;;4.30;2.87;;;;;;;4.89;77.26;98356.06;5053676;28;20290;-66
2022/01/28 09:52:52;;;;;;;4.32;2.63;;;;;;;5.20;75.89;98359.81;5052676;28;20408;-65
2022/01/28 09:55:19;;;;;;;5.43;2.75;;;;;;;5.20;75.02;98362.44;5065067;28;20407;-65
2022/01/28 09:57:47;;;;;;;3.45;2.42;;;;;;;5.45;73.50;98363.38;5066309;28;20385;-63
2022/01/28 10:00:15;;;;;;;5.13;2.50;;;;;;;5.71;73.40;98361.53;5052949;28;20213;-64
2022/01/28 10:03:01;;;;;;;5.17;2.20;;;;;;;6.01;71.52;98364.59;5035438;28;20193;-63
2022/01/28 10:05:29;;;;;;;4.07;2.40;;;;;;;5.76;71.11;98369.69;5065333;28;20256;-63
2022/01/28 10:08:15;;;;;;;2.00;1.90;;;;;;;5.85;70.65;98366.13;5072809;28;20185;-63
2022/01/28 10:10:48;;;;;;;4.00;1.70;;;;;;;5.74;69.25;98366.41;5072560;28;20177;-65
2022/01/28 10:13:26;;;;;;;4.17;2.10;;;;;;;5.91;69.25;98369.13;5072102;28;20330;-67
2022/01/28 10:15:53;;;;;;;2.80;1.70;;;;;;;5.79;69.50;98373.78;5056530;28;20225;-66
2022/01/28 10:18:18;;;;;;;2.63;1.90;;;;;;;5.92;69.96;98376.75;5057334;28;20177;-66
2022/01/28 10:20:44;;;;;;;7.00;1.80;;;;;;;5.63;69.32;98371.91;5066060;28;20245;-66
2022/01/28 10:23:18;;;;;;;6.10;1.70;;;;;;;5.74;68.97;98361.22;5072132;28;20185;-67
2022/01/28 10:25:44;;;;;;;2.80;1.70;;;;;;;5.64;68.70;98364.91;5069246;28;20610;-65
2022/01/28 10:28:11;;;;;;;3.47;1.77;;;;;;;5.35;69.25;98358.28;5071037;28;20192;-65
2022/01/28 10:30:42;;;;;;;6.30;2.30;;;;;;;5.41;69.05;98352.47;5070585;28;20182;-64
2022/01/28 10:33:16;;;;;;;4.37;1.50;;;;;;;5.39;68.92;98351.00;5067672;28;20170;-65
2022/01/28 10:35:50;;;;;;;6.50;1.70;;;;;;;5.39;69.46;98357.03;5070577;28;20525;-64
2022/01/28 10:38:38;;;;;;;3.90;1.47;;;;;;;5.57;69.34;98359.53;5071800;28;20181;-65
2022/01/28 10:41:08;;;;;;;4.60;1.57;;;;;;;5.74;68.29;98361.22;5068898;28;20245;-65
2022/01/28 10:43:52;;;;;;;4.73;1.57;;;;;;;5.35;69.35;98353.06;5053618;28;20173;-65
2022/01/28 10:46:34;;;;;;;5.13;1.80;;;;;;;5.59;68.66;98352.38;5066305;28;20185;-65
2022/01/28 10:49:08;;;;;;;2.43;1.50;;;;;;;5.47;68.90;98338.03;5042932;28;20185;-65
2022/01/28 10:51:47;;;;;;;3.00;1.50;;;;;;;5.52;69.17;98347.97;5068889;28;20222;-65
2022/01/28 10:54:15;;;;;;;3.47;1.40;;;;;;;5.71;68.98;98347.72;5063708;28;20174;-65
2022/01/28 10:56:53;;;;;;;5.90;1.80;;;;;;;5.57;68.94;98348.31;5052494;28;20264;-65
2022/01/28 10:59:20;;;;;;;3.33;1.80;;;;;;;5.49;69.41;98345.66;5065694;28;20626;-65
2022/01/28 11:01:47;;;;;;;4.50;1.60;;;;;;;5.53;69.52;98345.19;5072212;28;20559;-65
2022/01/28 11:04:15;;;;;;;6.67;1.73;;;;;;;5.58;68.79;98348.16;5070213;28;20189;-65
2022/01/28 11:06:41;;;;;;;4.20;1.57;;;;;;;5.56;67.51;98354.50;5055764;28;20201;-65
2022/01/28 11:09:08;;;;;;;3.23;1.33;;;;;;;5.41;67.56;98352.47;5063421;28;20182;-65
2022/01/28 11:11:34;;;;;;;3.43;1.60;;;;;;;5.46;68.04;98353.81;5067850;28;20189;-67
2022/01/28 11:13:59;;;;;;;3.07;1.77;;;;;;;5.57;68.01;98367.34;5072376;28;20242;-65
2022/01/28 11:16:25;;;;;;;3.03;1.33;;;;;;;5.42;67.92;98359.28;5061482;28;20180;-64
2022/01/28 11:18:52;;;;;;;8.50;2.13;;;;;;;5.42;67.46;98361.06;5042571;28;20209;-65
2022/01/28 11:21:23;;;;;;;6.63;1.60;;;;;;;5.76;66.50;98363.66;5064190;28;20543;-65
2022/01/28 11:23:55;;;;;;;1.43;1.23;;;;;;;5.77;66.16;98367.91;5072587;28;20254;-65
2022/01/28 11:26:31;;;;;;;3.93;1.40;;;;;;;5.81;65.97;98367.41;5074934;28;20176;-68
2022/01/28 11:29:02;;;;;;;1.70;1.10;;;;;;;5.72;65.88;98373.56;5065237;28;20314;-65
2022/01/28 11:31:46;;;;;;;2.27;1.33;;;;;;;5.29;64.77;98377.13;5070555;28;20194;-65
2022/01/28 11:34:25;;;;;;;4.37;1.60;;;;;;;5.14;67.04;98372.63;5072341;28;20173;-65
2022/01/28 11:36:53;;;;;;;6.23;1.53;;;;;;;5.71;65.65;98368.53;5059100;28;20177;-67
2022/01/28 11:39:41;;;;;;;3.47;1.57;;;;;;;5.83;65.16;98369.88;5069790;28;20217;-66
2022/01/28 11:42:24;;;;;;;6.10;1.53;;;;;;;5.88;64.98;98365.03;5072234;28;20185;-65
2022/01/28 11:44:49;;;;;;;2.20;1.40;;;;;;;5.96;64.79;98370.28;5060430;28;20177;-65
2022/01/28 11:47:41;;;;;;;1.87;1.17;;;;;;;5.79;65.24;98360.75;5075376;28;20182;-66
2022/01/28 11:50:13;;;;;;;2.67;1.50;;;;;;;5.68;64.87;98359.25;5056905;28;20182;-65
2022/01/28 11:52:41;;;;;;;3.20;1.37;;;;;;;5.67;64.79;98347.22;5060763;28;20264;-65
2022/01/28 11:55:16;;;;;;;3.23;1.80;;;;;;;5.63;65.10;98332.88;5056086;28;20229;-65
2022/01/28 11:57:54;;;;;;;;;;;;;;;5.41;65.03;98336.03;5055775;28;20390;-66
2022/01/28 12:00:22;;;;;;;;;;;;;;;5.07;65.28;98343.81;5072458;28;19916;-65
2022/01/28 12:02:49;;;;;;;;;;;;;;;5.33;65.17;98342.03;5057821;28;19917;-65
2022/01/28 12:05:30;;;;;;;;;;;;;;;5.28;64.55;98336.50;5075631;28;20421;-65
2022/01/28 12:08:03;;;;;;;;;;;;;;;5.63;64.46;98339.91;5057301;28;19942;-65
2022/01/28 12:10:30;;;;;;;;;;;;;;;5.44;65.35;98351.34;5060875;28;19943;-66
2022/01/28 12:13:05;;;;;;;;;;;;;;;5.49;66.04;98358.69;5071792;28;20369;-65
2022/01/28 12:15:57;;;;;;;3.60;1.60;;;;;;;5.03;66.13;98353.72;5061478;28;20195;-66
2022/01/28 12:18:23;;;;;;;4.05;1.42;;;;;;;4.82;66.10;98357.63;5054985;28;20936;-65
2022/01/28 12:20:49;;;;;;;4.40;1.60;;;;;;;4.84;66.36;98355.69;5055217;28;20513;-66
2022/01/28 12:23:14;;;;;;;3.83;1.63;;;;;;;4.89;66.43;98363.84;5071389;28;20413;-65
2022/01/28 12:25:39;;;;;;;1.50;1.40;;;;;;;4.76;67.61;98359.03;5061060;28;20239;-65
2022/01/28 12:28:21;;;;;;;2.70;1.60;;;;;;;4.79;67.27;98352.75;5059987;28;20597;-65
2022/01/28 12:30:58;;;;;;;4.17;1.80;;;;;;;4.69;67.30;98347.63;5056385;28;20174;-66
2022/01/28 12:33:25;;;;;;;4.40;1.85;;;;;;;4.98;66.45;98345.56;5060592;28;20405;-65
2022/01/28 12:35:53;;;;;;;3.22;1.60;;;;;;;4.70;67.21;98348.44;5074031;28;20419;-65
2022/01/28 12:38:22;;;;;;;3.30;1.85;;;;;;;4.80;67.04;98341.38;5046237;28;20501;-65
2022/01/28 12:40:52;;;;;;;4.47;2.00;;;;;;;4.90;67.27;98336.91;5054109;28;20943;-65
2022/01/28 12:43:19;;;;;;;5.18;2.00;;;;;;;5.14;65.80;98321.44;5053582;28;20393;-65
2022/01/28 12:46:22;;;;;;;5.20;1.80;;;;;;;5.25;66.35;98326.38;5071125;28;20418;-65
2022/01/28 12:48:51;;;;;;;;;;;;;;;5.24;65.83;98337.75;5061182;28;20049;-65
2022/01/28 12:51:17;;;;;;;;;;;;;;;4.82;66.81;98350.66;5059051;28;19928;-64
2022/01/28 12:53:42;;;;;;;;;;;;;;;4.75;67.83;98341.00;5059459;28;19974;-65
2022/01/28 12:56:09;;;;;;;;;;;;;;;4.79;67.65;98339.75;5068019;28;19923;-65
2022/01/28 12:58:40;;;;;;;;;;;;;;;5.19;66.59;98346.97;5063419;28;19951;-64
2022/01/28 13:01:09;;;;;;;;;;;;;;;5.14;66.22;98341.44;5067239;28;19921;-65
2022/01/28 13:03:46;;;;;;;;;;;;;;;5.23;66.20;98340.53;5068941;28;20283;-67
2022/01/28 13:09:18;;;;;;;;;;;;;;;5.28;66.84;98327.88;5067566;28;19962;-66
2022/01/28 13:11:46;;;;;;;;;;;;;;;4.97;69.20;98343.09;5073354;28;19946;-65
2022/01/28 13:14:13;;;;;;;;;;;;;;;4.85;70.09;98345.13;5065312;28;19924;-65
2022/01/28 13:16:40;;;;;;;;;;;;;;;5.14;70.52;98346.63;5062864;28;19922;-65
2022/01/28 13:19:06;;;;;;;;;;;;;;;5.02;70.78;98341.69;5073764;28;19963;-66
2022/01/28 13:21:31;;;;;;;;;;;;;;;5.02;70.91;98344.28;5036284;28;19944;-66
2022/01/28 13:24:06;;;;;;;;;;;;;;;5.00;69.49;98341.03;5054344;28;19959;-67
2022/01/28 13:26:31;;;;;;;;;;;;;;;5.05;69.47;98345.78;5060036;28;19916;-65
2022/01/28 13:29:06;;;;;;;;;;;;;;;4.71;70.39;98342.28;5059334;28;19943;-65
2022/01/28 13:31:32;;;;;;;;;;;;;;;5.06;70.62;98344.00;5039939;28;20011;-66
2022/01/28 13:33:58;;;;;;;;;;;;;;;4.91;71.32;98328.13;5065214;28;20318;-66
2022/01/28 13:36:23;;;;;;;;;;;;;;;4.63;73.60;98340.44;5065148;28;19920;-66
2022/01/28 13:38:49;;;;;;;;;;;;;;;4.74;72.49;98331.59;5055812;28;20301;-66
2022/01/28 13:41:17;;;;;;;;;;;;;;;4.70;73.14;98343.25;5067684;28;19950;-66
2022/01/28 13:43:43;;;;;;;;;;;;;;;4.70;73.64;98338.06;5054963;28;19932;-66
2022/01/28 13:46:12;;;;;;;;;;;;;;;4.56;72.89;98335.06;5066641;28;19924;-66
2022/01/28 13:48:39;;;;;;;;;;;;;;;4.51;73.15;98339.84;5053677;28;19917;-66
2022/01/28 13:51:09;;;;;;;;;;;;;;;4.37;74.19;98353.38;5040469;28;19926;-66
2022/01/28 13:56:28;;;;;;;;;;;;;;;4.47;74.68;98346.31;5054334;28;19924;-66
2022/01/28 13:58:54;;;;;;;;;;;;;;;4.54;74.53;98346.53;5056495;28;19917;-66
2022/01/28 14:01:21;;;;;;;;;;;;;;;4.51;74.54;98334.66;5073583;28;19920;-66
2022/01/28 14:03:56;;;;;;;;;;;;;;;4.38;75.15;98351.59;5039849;28;20373;-66
2022/01/28 14:06:28;;;;;;;;;;;;;;;4.25;75.16;98351.94;5059862;28;19920;-68
2022/01/28 14:08:56;;;;;;;;;;;;;;;4.50;74.80;98346.03;5062152;28;19973;-66
2022/01/28 14:11:25;;;;;;;;;;;;;;;4.47;74.61;98358.47;5068521;28;19924;-66
2022/01/28 14:14:13;;;;;;;;;;;;;;;4.58;73.88;98364.25;5062637;28;19970;-66
2022/01/28 14:16:38;;;;;;;;;;;;;;;4.73;74.03;98363.75;5043218;28;19995;-66